createdAt,value
2018-07-20T00:00:02.696Z,5.50
2018-07-20T00:02:30.803Z,5.60
2018-07-20T00:04:58.720Z,5.13
2018-07-20T00:07:26.672Z,5.30
2018-07-20T00:09:54.624Z,5.27
2018-07-20T00:12:22.568Z,5.30
2018-07-20T00:14:50.551Z,5.50
2018-07-20T00:17:18.487Z,5.57
2018-07-20T00:19:46.437Z,5.33
2018-07-20T00:22:14.436Z,5.20
2018-07-20T00:24:42.592Z,5.43
2018-07-20T00:27:10.513Z,5.40
2018-07-20T00:29:38.672Z,5.47
2018-07-20T00:32:06.941Z,4.90
2018-07-20T00:34:35.136Z,5.57
2018-07-20T00:37:03.328Z,5.17
2018-07-20T00:39:31.497Z,5.10
2018-07-20T00:41:59.677Z,5.10
2018-07-20T00:44:27.648Z,5.43
2018-07-20T00:46:55.805Z,5.03
2018-07-20T00:49:24.044Z,5.77
2018-07-20T00:51:52.201Z,6.00
2018-07-20T00:54:20.361Z,5.10
2018-07-20T00:56:48.272Z,5.30
2018-07-20T00:59:16.206Z,5.30
2018-07-20T01:01:44.121Z,5.03
2018-07-20T01:04:12.064Z,5.50
2018-07-20T01:06:40.145Z,5.23
2018-07-20T01:09:09.113Z,5.37
2018-07-20T01:11:37.037Z,5.40
2018-07-20T01:14:05.071Z,5.53
2018-07-20T01:16:33.013Z,5.30
2018-07-20T01:19:00.945Z,5.43
2018-07-20T01:21:28.889Z,5.47
2018-07-20T01:23:56.857Z,5.10
2018-07-20T01:26:24.801Z,5.50
2018-07-20T01:28:52.761Z,5.73
2018-07-20T01:31:20.697Z,5.30
2018-07-20T01:33:48.734Z,6.00
2018-07-20T01:36:16.670Z,5.77
2018-07-20T01:38:44.593Z,5.70
2018-07-20T01:41:12.509Z,5.70
2018-07-20T01:43:40.501Z,5.80
2018-07-20T01:46:08.462Z,6.23
2018-07-20T01:48:36.410Z,6.80
2018-07-20T01:51:04.360Z,6.60
2018-07-20T01:53:32.302Z,6.93
2018-07-20T01:56:00.460Z,6.50
2018-07-20T01:58:29.122Z,6.57
2018-07-20T02:00:57.295Z,6.33
2018-07-20T02:03:25.433Z,6.17
2018-07-20T02:05:53.633Z,6.17
2018-07-20T02:08:21.786Z,6.03
2018-07-20T02:10:55.791Z,6.20
2018-07-20T02:13:23.970Z,6.43
2018-07-20T02:15:52.210Z,5.93
2018-07-20T02:18:20.419Z,5.83
2018-07-20T02:20:48.583Z,5.83
2018-07-20T02:23:16.734Z,6.60
2018-07-20T02:25:45.006Z,5.67
2018-07-20T02:28:13.167Z,5.87
2018-07-20T02:30:41.347Z,6.00
2018-07-20T02:33:09.791Z,6.33
2018-07-20T02:35:37.978Z,6.33
2018-07-20T02:38:05.924Z,6.10
2018-07-20T02:40:34.107Z,6.17
2018-07-20T02:43:02.352Z,6.30
2018-07-20T02:45:30.907Z,6.60
2018-07-20T02:47:59.191Z,6.37
2018-07-20T02:50:27.402Z,6.53
2018-07-20T02:52:55.615Z,6.60
2018-07-20T02:55:23.860Z,6.83
2018-07-20T02:57:52.015Z,6.70
2018-07-20T03:00:20.234Z,7.00
2018-07-20T03:02:48.423Z,6.50
2018-07-20T03:05:16.631Z,7.30
2018-07-20T03:07:44.632Z,7.07
2018-07-20T03:10:12.572Z,6.70
2018-07-20T03:12:40.500Z,6.90
2018-07-20T03:15:08.411Z,7.13
2018-07-20T03:17:36.348Z,6.93
2018-07-20T03:20:04.279Z,7.30
2018-07-20T03:22:32.222Z,6.53
2018-07-20T03:25:00.169Z,7.33
2018-07-20T03:27:28.109Z,6.67
2018-07-20T03:29:56.052Z,7.70
2018-07-20T03:32:23.992Z,7.77
2018-07-20T03:34:51.912Z,7.83
2018-07-20T03:37:19.816Z,8.17
2018-07-20T03:39:47.768Z,7.50
2018-07-20T03:42:15.679Z,7.67
2018-07-20T03:44:43.616Z,8.70
2018-07-20T03:47:12.144Z,8.57
2018-07-20T03:49:40.055Z,7.93
2018-07-20T03:52:08.421Z,7.73
2018-07-20T03:54:36.291Z,8.47
2018-07-20T03:57:04.304Z,8.07
2018-07-20T03:59:32.228Z,8.37
2018-07-20T04:02:00.416Z,7.90
2018-07-20T04:04:28.580Z,8.10
2018-07-20T04:06:56.816Z,8.27
2018-07-20T04:09:25.020Z,8.13
2018-07-20T04:11:53.199Z,8.23
2018-07-20T04:14:21.372Z,7.93
2018-07-20T04:16:49.549Z,8.10
2018-07-20T04:19:17.692Z,7.90
2018-07-20T04:21:45.868Z,8.80
2018-07-20T04:24:14.063Z,8.80
2018-07-20T04:26:42.330Z,8.70
2018-07-20T04:29:10.538Z,9.07
2018-07-20T04:31:38.756Z,9.23
2018-07-20T04:34:06.969Z,9.40
2018-07-20T04:36:35.321Z,9.67
2018-07-20T04:39:04.137Z,9.60
2018-07-20T04:41:32.388Z,9.63
2018-07-20T04:44:00.578Z,9.87
2018-07-20T04:46:28.813Z,9.70
2018-07-20T04:48:57.045Z,10.23
2018-07-20T04:51:25.798Z,9.30
2018-07-20T04:53:54.405Z,9.70
2018-07-20T04:56:22.569Z,9.00
2018-07-20T04:58:50.789Z,9.03
2018-07-20T05:01:18.981Z,9.07
2018-07-20T05:03:47.835Z,9.53
2018-07-20T05:06:16.809Z,9.03
2018-07-20T05:08:46.785Z,9.57
2018-07-20T05:11:15.146Z,9.43
2018-07-20T05:13:43.573Z,9.37
2018-07-20T05:16:11.753Z,9.93
2018-07-20T05:18:39.941Z,8.97
2018-07-20T05:21:08.200Z,9.63
2018-07-20T05:23:36.877Z,9.67
2018-07-20T05:26:05.060Z,9.97
2018-07-20T05:28:33.232Z,10.03
2018-07-20T05:31:01.468Z,10.43
2018-07-20T05:33:30.196Z,10.70
2018-07-20T05:35:58.368Z,9.80
2018-07-20T05:38:26.644Z,9.90
2018-07-20T05:40:54.877Z,10.53
2018-07-20T05:43:23.052Z,9.77
2018-07-20T05:45:51.433Z,8.37
2018-07-20T05:48:19.589Z,9.33
2018-07-20T05:50:47.744Z,11.83
2018-07-20T05:53:15.691Z,9.40
2018-07-20T05:55:44.004Z,9.13
2018-07-20T05:58:12.237Z,9.43
2018-07-20T06:00:40.412Z,9.07
2018-07-20T06:03:08.609Z,9.13
2018-07-20T06:05:36.821Z,8.27
2018-07-20T06:08:05.927Z,7.87
2018-07-20T06:10:34.120Z,8.43
2018-07-20T06:13:02.556Z,8.43
2018-07-20T06:15:30.523Z,8.50
2018-07-20T06:17:58.684Z,8.00
2018-07-20T06:20:26.884Z,8.40
2018-07-20T06:22:55.083Z,8.93
2018-07-20T06:25:23.269Z,8.67
2018-07-20T06:27:51.465Z,8.70
2018-07-20T06:30:19.616Z,8.77
2018-07-20T06:32:48.021Z,8.40
2018-07-20T06:35:16.220Z,8.50
2018-07-20T06:37:44.412Z,8.70
2018-07-20T06:40:12.556Z,8.63
2018-07-20T06:42:40.748Z,7.63
2018-07-20T06:45:09.025Z,8.10
2018-07-20T06:47:37.172Z,8.13
2018-07-20T06:50:09.601Z,9.13
2018-07-20T06:52:37.771Z,8.23
2018-07-20T06:55:05.936Z,8.17
2018-07-20T06:57:34.109Z,8.60
2018-07-20T07:00:02.281Z,8.53
2018-07-20T07:02:30.452Z,8.57
2018-07-20T07:04:58.729Z,8.90
2018-07-20T07:07:26.937Z,8.50
2018-07-20T07:09:55.085Z,8.77
2018-07-20T07:12:23.316Z,8.60
2018-07-20T07:14:51.642Z,9.47
2018-07-20T07:17:19.778Z,8.77
2018-07-20T07:19:47.991Z,9.77
2018-07-20T07:22:16.216Z,9.10
2018-07-20T07:24:44.347Z,9.63
2018-07-20T07:27:12.594Z,9.30
2018-07-20T07:32:15.499Z,8.77
2018-07-20T07:34:43.693Z,9.10
2018-07-20T07:37:11.886Z,9.23
2018-07-20T07:39:40.923Z,9.17
2018-07-20T07:42:09.093Z,9.30
2018-07-20T07:44:37.278Z,9.63
2018-07-20T07:47:05.563Z,9.00
2018-07-20T07:49:33.735Z,9.40
2018-07-20T07:52:01.894Z,9.50
2018-07-20T07:54:30.138Z,9.80
2018-07-20T07:56:58.373Z,9.87
2018-07-20T07:59:26.542Z,9.43
2018-07-20T08:01:54.706Z,9.60
2018-07-20T08:04:22.878Z,9.33
2018-07-20T08:06:51.053Z,9.33
2018-07-20T08:09:19.518Z,10.07
2018-07-20T08:11:47.695Z,9.70
2018-07-20T08:14:15.861Z,9.87
2018-07-20T08:16:44.030Z,9.50
2018-07-20T08:19:12.197Z,9.37
2018-07-20T08:21:40.842Z,9.77
2018-07-20T08:24:09.050Z,10.10
2018-07-20T08:26:37.242Z,9.40
2018-07-20T08:29:05.426Z,10.00
2018-07-20T08:31:33.632Z,9.67
2018-07-20T08:34:01.794Z,10.00
2018-07-20T08:36:30.106Z,9.43
2018-07-20T08:38:58.331Z,9.80
2018-07-20T08:41:26.490Z,10.03
2018-07-20T08:43:54.662Z,9.80
2018-07-20T08:46:22.886Z,9.70
2018-07-20T08:48:51.074Z,10.43
2018-07-20T08:51:19.260Z,9.43
2018-07-20T08:53:47.443Z,9.73
2018-07-20T08:56:15.617Z,10.20
2018-07-20T08:58:43.828Z,9.20
2018-07-20T09:01:12.003Z,10.53
2018-07-20T09:03:40.282Z,9.73
2018-07-20T09:06:08.355Z,9.90
2018-07-20T09:08:36.584Z,11.63
2018-07-20T09:11:04.789Z,9.50
2018-07-20T09:13:33.213Z,8.60
2018-07-20T09:16:01.342Z,9.73
2018-07-20T09:18:29.507Z,9.40
2018-07-20T09:20:57.792Z,9.50
2018-07-20T09:23:25.935Z,10.60
2018-07-20T09:25:54.087Z,8.90
2018-07-20T09:28:22.282Z,9.30
2018-07-20T09:30:50.492Z,9.00
2018-07-20T09:33:18.676Z,8.50
2018-07-20T09:35:46.876Z,8.83
2018-07-20T09:38:15.116Z,9.08
2018-07-20T09:40:43.275Z,9.18
2018-07-20T09:43:11.206Z,8.35
2018-07-20T09:45:39.444Z,8.43
2018-07-20T09:48:07.640Z,8.33
2018-07-20T09:50:35.796Z,7.80
2018-07-20T09:53:03.999Z,7.90
2018-07-20T09:55:32.188Z,7.47
2018-07-20T09:58:00.383Z,7.10
2018-07-20T10:01:04.568Z,6.50
2018-07-20T10:03:32.764Z,7.30
2018-07-20T10:06:00.939Z,7.28
2018-07-20T10:08:29.136Z,6.85
2018-07-20T10:10:57.357Z,8.40
2018-07-20T10:13:25.576Z,7.62
2018-07-20T10:15:53.745Z,9.05
2018-07-20T10:18:21.924Z,10.05
2018-07-20T10:20:50.113Z,7.92
2018-07-20T10:23:18.312Z,8.73
2018-07-20T10:25:46.515Z,8.20
2018-07-20T10:28:14.644Z,7.83
2018-07-20T10:30:42.865Z,7.65
2018-07-20T10:33:11.060Z,7.70
2018-07-20T10:35:39.316Z,7.10
2018-07-20T10:38:07.480Z,7.83
2018-07-20T10:40:35.644Z,7.58
2018-07-20T10:43:03.827Z,7.33
2018-07-20T10:45:32.000Z,7.72
2018-07-20T10:48:00.192Z,8.60
2018-07-20T10:50:28.356Z,7.62
2018-07-20T10:52:56.532Z,8.00
2018-07-20T10:55:24.717Z,7.20
2018-07-20T10:57:52.933Z,7.62
2018-07-20T11:00:21.121Z,7.75
2018-07-20T11:02:49.279Z,7.47
2018-07-20T11:05:17.468Z,6.90
2018-07-20T11:07:45.611Z,7.03
2018-07-20T11:10:13.785Z,6.33
2018-07-20T11:12:42.019Z,7.55
2018-07-20T11:15:10.186Z,7.50
2018-07-20T11:17:38.373Z,7.67
2018-07-20T11:20:06.594Z,7.60
2018-07-20T11:22:34.785Z,7.30
2018-07-20T11:25:02.934Z,6.70
2018-07-20T11:27:31.121Z,6.53
2018-07-20T11:29:59.064Z,7.53
2018-07-20T11:32:27.310Z,7.50
2018-07-20T11:34:55.484Z,7.35
2018-07-20T11:37:23.653Z,6.65
2018-07-20T11:39:51.825Z,6.85
2018-07-20T11:42:19.985Z,6.87
2018-07-20T11:44:48.163Z,7.45
2018-07-20T11:47:16.322Z,6.62
2018-07-20T11:49:44.493Z,7.20
2018-07-20T11:52:12.758Z,6.50
2018-07-20T11:54:40.957Z,7.25
2018-07-20T11:57:09.157Z,6.20
2018-07-20T11:59:37.531Z,6.97
2018-07-20T12:02:05.872Z,6.60
2018-07-20T12:04:34.038Z,6.55
2018-07-20T12:07:02.390Z,5.80
2018-07-20T12:09:30.585Z,6.78
2018-07-20T12:11:58.778Z,5.92
2018-07-20T12:14:26.974Z,6.05
2018-07-20T12:16:55.214Z,6.40
2018-07-20T12:19:23.390Z,6.80
2018-07-20T12:21:51.554Z,8.10
2018-07-20T12:24:19.723Z,7.28
2018-07-20T12:26:47.935Z,7.12
2018-07-20T12:29:16.190Z,7.10
2018-07-20T12:31:44.402Z,7.20
2018-07-20T12:34:12.570Z,6.37
2018-07-20T12:36:40.733Z,6.60
2018-07-20T12:39:10.042Z,6.33
2018-07-20T12:41:38.222Z,6.40
2018-07-20T12:44:06.494Z,6.97
2018-07-20T12:46:34.719Z,6.78
2018-07-20T12:49:02.871Z,5.87
2018-07-20T12:51:31.066Z,8.08
2018-07-20T12:53:58.982Z,6.90
2018-07-20T12:56:27.567Z,6.60
2018-07-20T12:58:55.800Z,6.83
2018-07-20T13:01:23.939Z,7.40
2018-07-20T13:03:52.102Z,7.05
2018-07-20T13:06:20.338Z,5.90
2018-07-20T13:08:48.522Z,6.15
2018-07-20T13:11:17.251Z,6.80
2018-07-20T13:13:45.415Z,6.62
2018-07-20T13:16:13.567Z,6.83
2018-07-20T13:18:41.771Z,6.35
2018-07-20T13:21:09.992Z,6.80
2018-07-20T13:23:38.206Z,6.40
2018-07-20T13:26:06.391Z,6.17
2018-07-20T13:28:34.584Z,6.00
2018-07-20T13:31:02.563Z,6.62
2018-07-20T13:33:30.720Z,6.03
2018-07-20T13:35:58.980Z,5.70
2018-07-20T13:38:27.151Z,6.20
2018-07-20T13:40:55.323Z,5.53
2018-07-20T13:43:23.571Z,5.70
2018-07-20T13:45:51.891Z,5.50
2018-07-20T13:48:20.051Z,5.95
2018-07-20T13:50:48.235Z,6.72
2018-07-20T13:53:16.412Z,5.15
2018-07-20T13:55:44.592Z,5.58
2018-07-20T13:58:12.788Z,5.80
2018-07-20T14:00:40.968Z,5.62
2018-07-20T14:03:09.123Z,8.55
2018-07-20T14:05:37.327Z,5.60
2018-07-20T14:08:05.519Z,5.70
2018-07-20T14:10:33.704Z,6.03
2018-07-20T14:13:01.957Z,6.50
2018-07-20T14:15:30.230Z,5.53
2018-07-20T14:17:58.442Z,6.20
2018-07-20T14:20:26.603Z,5.67
2018-07-20T14:22:54.765Z,5.42
2018-07-20T14:25:22.932Z,5.80
2018-07-20T14:27:51.128Z,6.95
2018-07-20T14:30:19.405Z,6.12
2018-07-20T14:32:47.616Z,5.95
2018-07-20T14:35:15.829Z,5.42
2018-07-20T14:37:44.020Z,5.53
2018-07-20T14:40:12.269Z,5.50
2018-07-20T14:42:40.517Z,5.33
2018-07-20T14:45:09.188Z,5.37
2018-07-20T14:47:37.576Z,5.30
2018-07-20T14:50:06.084Z,5.20
2018-07-20T14:52:34.257Z,9.90
2018-07-20T14:55:02.433Z,5.12
2018-07-20T14:57:30.729Z,5.47
2018-07-20T14:59:58.931Z,5.10
2018-07-20T15:02:27.131Z,4.70
2018-07-20T15:04:55.410Z,4.78
2018-07-20T15:07:23.757Z,5.10
2018-07-20T15:09:51.954Z,5.00
2018-07-20T15:12:20.192Z,4.65
2018-07-20T15:14:48.343Z,5.20
2018-07-20T15:17:16.482Z,5.10
2018-07-20T15:19:44.653Z,4.85
2018-07-20T15:22:12.852Z,5.40
2018-07-20T15:24:41.405Z,5.12
2018-07-20T15:27:09.577Z,5.15
2018-07-20T15:29:37.781Z,5.33
2018-07-20T15:32:06.059Z,5.15
2018-07-20T15:34:34.225Z,5.30
2018-07-20T15:37:02.169Z,5.55
2018-07-20T15:39:30.455Z,5.17
2018-07-20T15:41:58.638Z,5.17
2018-07-20T15:44:26.821Z,5.28
2018-07-20T15:46:55.182Z,4.90
2018-07-20T15:49:23.141Z,4.95
2018-07-20T15:53:35.718Z,5.35
2018-07-20T15:54:19.503Z,5.67
2018-07-20T15:56:47.817Z,5.55
2018-07-20T15:59:16.000Z,5.37
2018-07-20T16:01:44.141Z,5.60
2018-07-20T16:04:12.314Z,5.15
2018-07-20T16:06:40.501Z,5.28
2018-07-20T16:09:10.801Z,4.85
2018-07-20T16:11:39.036Z,5.08
2018-07-20T16:14:07.161Z,4.92
2018-07-20T16:16:35.405Z,5.25
2018-07-20T16:19:03.658Z,5.60
2018-07-20T16:21:31.850Z,4.80
2018-07-20T16:24:00.011Z,4.83
2018-07-20T16:26:28.178Z,4.72
2018-07-20T16:28:56.354Z,5.20
2018-07-20T16:31:24.510Z,4.75
2018-07-20T16:33:52.734Z,5.20
2018-07-20T16:36:20.890Z,4.72
2018-07-20T16:38:49.123Z,4.90
2018-07-20T16:41:17.390Z,7.58
2018-07-20T16:43:45.763Z,4.83
2018-07-20T16:46:14.246Z,5.30
2018-07-20T16:48:42.454Z,5.00
2018-07-20T16:51:10.651Z,5.17
2018-07-20T16:53:38.894Z,5.15
2018-07-20T16:56:07.116Z,4.92
2018-07-20T16:58:35.299Z,5.28
2018-07-20T17:01:03.598Z,4.83
2018-07-20T17:03:31.800Z,4.70
2018-07-20T17:05:59.987Z,5.10
2018-07-20T17:08:28.183Z,4.75
2018-07-20T17:10:56.088Z,4.70
2018-07-20T17:13:24.275Z,4.80
2018-07-20T17:15:52.419Z,5.20
2018-07-20T17:18:21.019Z,5.15
2018-07-20T17:20:49.204Z,4.87
2018-07-20T17:23:17.473Z,5.25
2018-07-20T17:25:45.668Z,4.72
2018-07-20T17:28:13.873Z,4.87
2018-07-20T17:30:41.989Z,4.87
2018-07-20T17:33:10.244Z,4.47
2018-07-20T17:35:38.400Z,4.80
2018-07-20T17:38:06.577Z,4.87
2018-07-20T17:40:34.744Z,4.87
2018-07-20T17:43:03.004Z,4.80
2018-07-20T17:45:31.180Z,5.35
2018-07-20T17:47:59.375Z,5.22
2018-07-20T17:50:27.554Z,4.53
2018-07-20T17:52:55.729Z,4.90
2018-07-20T17:55:23.991Z,4.70
2018-07-20T17:57:52.140Z,4.80
2018-07-20T18:00:20.367Z,4.85
2018-07-20T18:02:48.544Z,5.05
2018-07-20T18:05:16.745Z,5.10
2018-07-20T18:07:44.972Z,4.95
2018-07-20T18:10:13.169Z,4.90
2018-07-20T18:12:41.320Z,4.83
2018-07-20T18:15:09.660Z,4.58
2018-07-20T18:17:37.896Z,4.42
2018-07-20T18:20:06.104Z,5.08
2018-07-20T18:22:34.285Z,4.78
2018-07-20T18:25:02.481Z,4.25
2018-07-20T18:27:30.677Z,4.62
2018-07-20T18:29:58.860Z,4.78
2018-07-20T18:32:27.024Z,5.83
2018-07-20T18:34:55.181Z,4.85
2018-07-20T18:37:23.333Z,5.53
2018-07-20T18:39:51.521Z,5.53
2018-07-20T18:42:19.692Z,5.70
2018-07-20T18:44:47.896Z,5.53
2018-07-20T18:47:16.077Z,5.62
2018-07-20T18:49:44.248Z,6.90
2018-07-20T18:52:12.409Z,6.22
2018-07-20T18:54:41.436Z,5.87
2018-07-20T18:57:09.616Z,6.12
2018-07-20T18:59:37.813Z,6.80
2018-07-20T19:02:06.066Z,6.10
2018-07-20T19:04:34.273Z,5.90
2018-07-20T19:07:02.537Z,6.67
2018-07-20T19:09:30.720Z,5.72
2018-07-20T19:11:58.880Z,6.40
2018-07-20T19:14:27.068Z,6.47
2018-07-20T19:16:55.228Z,5.95
2018-07-20T19:19:23.396Z,6.10
2018-07-20T19:21:51.573Z,5.90
2018-07-20T19:24:19.806Z,6.33
2018-07-20T19:26:47.997Z,6.70
2018-07-20T19:29:16.169Z,6.63
2018-07-20T19:31:44.345Z,6.30
2018-07-20T19:34:12.539Z,6.40
2018-07-20T19:36:40.682Z,6.10
2018-07-20T19:39:10.377Z,6.13
2018-07-20T19:41:38.741Z,6.07
2018-07-20T19:44:06.891Z,6.27
2018-07-20T19:46:35.139Z,6.30
2018-07-20T19:49:03.503Z,6.83
2018-07-20T19:51:31.526Z,6.70
2018-07-20T19:53:59.541Z,6.80
2018-07-20T19:56:27.461Z,6.80
2018-07-20T19:58:55.483Z,6.80
2018-07-20T20:01:23.489Z,6.67
2018-07-20T20:03:51.472Z,6.93
2018-07-20T20:06:19.385Z,6.37
2018-07-20T20:08:47.353Z,6.60
2018-07-20T20:11:15.301Z,6.20
2018-07-20T20:13:43.213Z,6.53
2018-07-20T20:16:11.189Z,6.23
2018-07-20T20:18:39.157Z,6.60
2018-07-20T20:21:07.078Z,6.30
2018-07-20T20:23:35.041Z,6.23
2018-07-20T20:26:09.522Z,6.20
2018-07-20T20:28:37.462Z,6.70
2018-07-20T20:31:05.386Z,6.20
2018-07-20T20:33:33.330Z,6.40
2018-07-20T20:36:01.313Z,7.87
2018-07-20T20:38:29.310Z,6.50
2018-07-20T20:40:57.254Z,6.20
2018-07-20T20:43:25.364Z,6.63
2018-07-20T20:45:53.301Z,6.30
2018-07-20T20:48:21.230Z,7.23
2018-07-20T20:50:49.194Z,6.20
2018-07-20T20:53:17.255Z,6.37
2018-07-20T20:55:45.174Z,5.90
2018-07-20T20:58:13.108Z,6.33
2018-07-20T21:00:41.010Z,5.70
2018-07-20T21:03:08.983Z,5.70
2018-07-20T21:05:36.918Z,6.23
2018-07-20T21:08:04.933Z,5.73
2018-07-20T21:10:32.889Z,6.17
2018-07-20T21:13:00.821Z,5.77
2018-07-20T21:15:28.734Z,5.90
2018-07-20T21:17:56.686Z,6.13
2018-07-20T21:20:24.630Z,5.70
2018-07-20T21:22:52.589Z,5.90
2018-07-20T21:25:20.505Z,5.97
2018-07-20T21:27:48.445Z,6.00
2018-07-20T21:30:16.373Z,6.10
2018-07-20T21:32:44.318Z,6.13
2018-07-20T21:35:12.262Z,5.70
2018-07-20T21:37:40.231Z,6.00
2018-07-20T21:40:08.190Z,5.63
2018-07-20T21:42:36.119Z,6.00
2018-07-20T21:45:04.323Z,6.50
2018-07-20T21:47:32.335Z,6.37
2018-07-20T21:50:00.267Z,6.30
2018-07-20T21:52:28.187Z,6.67
2018-07-20T21:54:56.123Z,6.53
2018-07-20T21:57:24.063Z,6.33
2018-07-20T21:59:52.008Z,7.10
2018-07-20T22:02:19.951Z,6.10
2018-07-20T22:04:47.871Z,6.40
2018-07-20T22:07:15.783Z,6.60
2018-07-20T22:09:43.703Z,6.43
2018-07-20T22:12:11.643Z,6.37
2018-07-20T22:14:39.561Z,6.33
2018-07-20T22:17:07.536Z,6.43
2018-07-20T22:19:35.471Z,6.73
2018-07-20T22:22:03.431Z,6.33
2018-07-20T22:24:31.324Z,6.40
2018-07-20T22:26:59.282Z,6.33
2018-07-20T22:29:27.212Z,6.77
2018-07-20T22:31:55.160Z,5.90
2018-07-20T22:34:23.128Z,6.40
2018-07-20T22:36:51.064Z,6.27
2018-07-20T22:39:18.976Z,6.97
2018-07-20T22:41:46.940Z,6.80
2018-07-20T22:44:14.876Z,6.40
2018-07-20T22:46:42.799Z,5.97
2018-07-20T22:49:10.719Z,6.40
2018-07-20T22:51:38.652Z,6.30
2018-07-20T22:54:06.584Z,6.80
2018-07-20T22:56:34.536Z,6.63
2018-07-20T22:59:02.451Z,6.10
2018-07-20T23:01:30.369Z,5.90
2018-07-20T23:03:58.316Z,5.97
2018-07-20T23:06:26.236Z,5.97
2018-07-20T23:08:54.197Z,6.53
2018-07-20T23:11:22.141Z,6.50
2018-07-20T23:13:50.054Z,5.77
2018-07-20T23:16:18.084Z,6.07
2018-07-20T23:18:46.012Z,6.17
2018-07-20T23:21:14.069Z,6.13
2018-07-20T23:23:42.001Z,6.07
2018-07-20T23:26:09.952Z,6.13
2018-07-20T23:28:37.873Z,5.70
2018-07-20T23:31:05.804Z,5.53
2018-07-20T23:33:33.729Z,6.20
2018-07-20T23:36:01.661Z,5.70
2018-07-20T23:38:29.685Z,5.57
2018-07-20T23:40:57.620Z,5.80
2018-07-20T23:43:25.549Z,5.60
2018-07-20T23:45:53.474Z,5.73
2018-07-20T23:48:21.413Z,6.70
2018-07-20T23:50:49.328Z,6.37
2018-07-20T23:53:17.257Z,6.63
2018-07-20T23:55:45.204Z,6.83
2018-07-20T23:58:13.121Z,5.73
